createdAt,value
2018-09-25T00:45:39.365Z,99883.66
2018-09-25T00:48:14.472Z,99882.80
2018-09-25T00:50:49.646Z,99881.00
2018-09-25T00:56:28.704Z,99886.80
2018-09-25T00:59:04.040Z,99883.18
2018-09-25T01:04:33.705Z,99881.47
2018-09-25T01:07:09.071Z,99881.95
2018-09-25T01:09:44.143Z,99876.78
2018-09-25T01:12:19.575Z,99877.36
2018-09-25T01:14:55.083Z,99883.53
2018-09-25T01:17:30.361Z,99889.71
2018-09-25T01:20:05.547Z,99899.41
2018-09-25T01:22:41.497Z,99893.83
2018-09-25T01:25:17.149Z,99897.31
2018-09-25T01:27:52.555Z,99880.28
2018-09-25T01:30:27.823Z,99898.17
2018-09-25T01:33:04.386Z,99895.98
2018-09-25T01:35:39.660Z,99902.77
2018-09-25T01:38:15.005Z,99902.64
2018-09-25T01:40:50.243Z,99900.83
2018-09-25T01:43:25.514Z,99893.55
2018-09-25T01:46:00.604Z,99895.73
2018-09-25T01:48:36.723Z,99897.54
2018-09-25T01:51:11.674Z,99899.25
2018-09-25T01:53:47.011Z,99895.83
2018-09-25T01:56:22.287Z,99899.34
2018-09-25T01:58:57.515Z,99898.39
2018-09-25T02:01:32.882Z,99910.84
2018-09-25T02:04:08.192Z,99903.34
2018-09-25T02:06:43.333Z,99903.43
2018-09-25T02:09:18.587Z,99906.95
2018-09-25T02:11:53.795Z,99907.90
2018-09-25T02:14:29.147Z,99900.87
2018-09-25T02:17:04.541Z,99899.95
2018-09-25T02:19:39.823Z,99906.95
2018-09-25T02:22:15.215Z,99904.86
2018-09-25T02:24:50.536Z,99909.80
2018-09-25T02:27:25.915Z,99913.70
2018-09-25T02:30:01.779Z,99912.46
2018-09-25T02:32:37.069Z,99921.90
2018-09-25T02:35:12.563Z,99921.52
2018-09-25T02:37:47.920Z,99920.19
2018-09-25T02:40:23.094Z,99930.36
2018-09-25T02:42:58.453Z,99929.98
2018-09-25T02:45:33.658Z,99929.59
2018-09-25T02:48:08.782Z,99932.64
2018-09-25T02:50:44.022Z,99936.25
2018-09-25T02:53:19.277Z,99935.02
2018-09-25T02:55:54.622Z,99937.20
2018-09-25T02:58:29.800Z,99934.92
2018-09-25T03:01:04.904Z,99944.23
2018-09-25T03:03:40.206Z,99946.03
2018-09-25T03:06:15.500Z,99939.38
2018-09-25T03:08:50.712Z,99946.52
2018-09-25T03:11:26.142Z,99946.13
2018-09-25T03:14:01.502Z,99950.13
2018-09-25T03:16:36.834Z,99950.98
2018-09-25T03:19:12.208Z,99957.63
2018-09-25T03:21:47.486Z,99963.90
2018-09-25T03:24:22.969Z,99963.05
2018-09-25T03:26:58.510Z,99959.75
2018-09-25T03:29:33.752Z,99961.71
2018-09-25T03:32:09.158Z,99962.47
2018-09-25T03:34:44.449Z,99963.05
2018-09-25T03:37:19.668Z,99966.39
2018-09-25T03:39:54.946Z,99960.31
2018-09-25T03:42:30.134Z,99962.79
2018-09-25T03:45:05.520Z,99964.75
2018-09-25T03:47:40.644Z,99967.63
2018-09-25T03:50:15.958Z,99970.39
2018-09-25T03:52:51.313Z,99970.00
2018-09-25T03:55:26.730Z,99966.02
2018-09-25T03:58:01.928Z,99969.06
2018-09-25T04:00:37.354Z,99974.86
2018-09-25T04:03:12.688Z,99973.05
2018-09-25T04:05:47.987Z,99975.97
2018-09-25T04:08:30.152Z,99969.31
2018-09-25T04:11:05.658Z,99969.70
2018-09-25T04:13:40.850Z,99981.19
2018-09-25T04:16:16.038Z,99983.00
2018-09-25T04:18:51.438Z,99978.63
2018-09-25T04:21:26.769Z,99977.13
2018-09-25T04:24:02.386Z,99979.80
2018-09-25T04:26:37.792Z,99978.17
2018-09-25T04:29:13.164Z,99984.73
2018-09-25T04:31:48.415Z,99983.49
2018-09-25T04:34:23.634Z,99984.92
2018-09-25T04:36:59.106Z,99991.22
2018-09-25T04:39:35.236Z,99990.36
2018-09-25T04:42:10.688Z,99984.19
2018-09-25T04:44:45.859Z,99989.89
2018-09-25T04:47:21.192Z,99994.83
2018-09-25T04:49:56.528Z,99996.53
2018-09-25T04:52:31.746Z,100003.66
2018-09-25T04:55:07.315Z,100003.83
2018-09-25T04:57:42.678Z,100006.58
2018-09-25T05:00:17.894Z,100011.42
2018-09-25T05:02:53.163Z,100005.84
2018-09-25T05:05:28.292Z,100009.23
2018-09-25T05:08:03.764Z,100017.91
2018-09-25T05:10:39.261Z,100017.31
2018-09-25T05:13:14.697Z,100014.30
2018-09-25T05:15:49.982Z,100012.69
2018-09-25T05:18:25.291Z,100013.46
2018-09-25T05:21:03.359Z,100025.51
2018-09-25T05:23:38.542Z,100031.30
2018-09-25T05:26:13.961Z,100027.88
2018-09-25T05:28:49.423Z,100029.59
2018-09-25T05:31:24.973Z,100037.09
2018-09-25T05:34:00.467Z,100041.00
2018-09-25T05:36:35.669Z,100042.51
2018-09-25T05:39:13.680Z,100046.20
2018-09-25T05:41:49.411Z,100047.53
2018-09-25T05:44:27.968Z,100043.28
2018-09-25T05:47:03.205Z,100045.56
2018-09-25T05:49:39.773Z,100055.25
2018-09-25T05:52:15.107Z,100052.20
2018-09-25T05:54:50.456Z,100062.47
2018-09-25T05:57:25.956Z,100065.51
2018-09-25T06:00:01.469Z,100069.11
2018-09-25T06:02:36.700Z,100071.30
2018-09-25T06:05:12.555Z,100075.38
2018-09-25T06:07:47.994Z,100076.92
2018-09-25T06:10:23.107Z,100075.68
2018-09-25T06:12:58.331Z,100085.84
2018-09-25T06:15:33.689Z,100086.32
2018-09-25T06:18:09.059Z,100086.11
2018-09-25T06:20:44.273Z,100092.02
2018-09-25T06:23:19.684Z,100096.02
2018-09-25T06:25:54.958Z,100082.13
2018-09-25T06:28:30.628Z,100093.82
2018-09-25T06:31:05.984Z,100096.57
2018-09-25T06:33:43.947Z,100103.22
2018-09-25T06:36:19.023Z,100103.98
2018-09-25T06:38:54.363Z,100106.44
2018-09-25T06:41:29.697Z,100105.11
2018-09-25T06:44:06.277Z,100121.92
2018-09-25T06:46:41.599Z,100122.87
2018-09-25T06:49:17.565Z,100121.16
2018-09-25T06:51:55.494Z,100129.61
2018-09-25T06:54:30.683Z,100134.06
2018-09-25T06:57:06.039Z,100140.24
2018-09-25T06:59:41.373Z,100134.19
2018-09-25T07:02:16.733Z,100137.79
2018-09-25T07:04:52.957Z,100144.44
2018-09-25T07:07:28.621Z,100149.16
2018-09-25T07:10:04.391Z,100138.44
2018-09-25T07:12:40.467Z,100145.68
2018-09-25T07:15:15.921Z,100146.23
2018-09-25T07:17:51.391Z,100144.61
2018-09-25T07:20:26.847Z,100152.03
2018-09-25T07:23:02.176Z,100147.36
2018-09-25T07:25:37.318Z,100148.34
2018-09-25T07:28:12.700Z,100152.69
2018-09-25T07:30:48.162Z,100152.80
2018-09-25T07:33:23.312Z,100159.33
2018-09-25T07:35:58.704Z,100157.64
2018-09-25T07:38:34.096Z,100164.09
2018-09-25T07:41:09.381Z,100168.77
2018-09-25T07:43:44.682Z,100177.01
2018-09-25T07:46:20.044Z,100168.67
2018-09-25T07:48:55.404Z,100164.86
2018-09-25T07:51:30.716Z,100167.44
2018-09-25T07:54:06.074Z,100170.73
2018-09-25T07:56:41.306Z,100168.16
2018-09-25T07:59:16.608Z,100173.78
2018-09-25T08:01:51.862Z,100167.78
2018-09-25T08:04:27.270Z,100160.30
2018-09-25T08:07:02.645Z,100162.46
2018-09-25T08:09:37.951Z,100169.88
2018-09-25T08:12:13.460Z,100175.87
2018-09-25T08:14:48.992Z,100170.56
2018-09-25T08:17:24.256Z,100173.09
2018-09-25T08:19:59.413Z,100167.90
2018-09-25T08:22:34.755Z,100169.70
2018-09-25T08:25:10.098Z,100173.48
2018-09-25T08:27:45.230Z,100177.59
2018-09-25T08:30:20.470Z,100184.71
2018-09-25T08:32:55.621Z,100181.66
2018-09-25T08:35:30.931Z,100182.14
2018-09-25T08:38:06.314Z,100183.94
2018-09-25T08:40:41.824Z,100181.19
2018-09-25T08:43:17.119Z,100186.59
2018-09-25T08:45:52.534Z,100182.31
2018-09-25T08:48:27.782Z,100189.73
2018-09-25T08:51:02.993Z,100190.89
2018-09-25T08:53:38.469Z,100193.81
2018-09-25T08:56:13.789Z,100183.73
2018-09-25T08:58:49.124Z,100184.41
2018-09-25T09:01:24.542Z,100193.72
2018-09-25T09:03:59.940Z,100190.11
2018-09-25T09:06:35.312Z,100191.45
2018-09-25T09:09:14.020Z,100192.22
2018-09-25T09:11:49.297Z,100191.36
2018-09-25T09:14:24.597Z,100189.17
2018-09-25T09:16:59.972Z,100185.45
2018-09-25T09:19:35.398Z,100188.58
2018-09-25T09:22:10.689Z,100190.21
2018-09-25T09:24:46.113Z,100194.20
2018-09-25T09:27:21.354Z,100184.03
2018-09-25T09:29:56.632Z,100184.59
2018-09-25T09:32:31.977Z,100178.81
2018-09-25T09:35:07.245Z,100179.58
2018-09-25T09:37:42.629Z,100180.44
2018-09-25T09:40:18.090Z,100181.03
2018-09-25T09:42:53.272Z,100185.85
2018-09-25T09:45:28.613Z,100186.83
2018-09-25T09:48:04.009Z,100183.96
2018-09-25T09:50:39.303Z,100179.20
2018-09-25T09:53:14.525Z,100180.92
2018-09-25T09:55:49.889Z,100191.77
2018-09-25T09:58:25.260Z,100175.42
2018-09-25T10:01:00.597Z,100178.47
2018-09-25T10:03:35.847Z,100179.33
2018-09-25T10:06:11.325Z,100179.41
2018-09-25T10:08:46.563Z,100183.96
2018-09-25T10:11:21.835Z,100185.13
2018-09-25T10:13:57.298Z,100185.59
2018-09-25T10:16:32.497Z,100178.73
2018-09-25T10:19:07.739Z,100181.21
2018-09-25T10:21:43.142Z,100179.33
2018-09-25T10:24:18.523Z,100183.31
2018-09-25T10:26:53.659Z,100179.87
2018-09-25T10:29:28.920Z,100171.98
2018-09-25T10:32:04.492Z,100175.20
2018-09-25T10:34:40.893Z,100171.42
2018-09-25T10:37:17.156Z,100164.30
2018-09-25T10:39:52.426Z,100170.48
2018-09-25T10:42:27.777Z,100171.04
2018-09-25T18:15:40.956Z,100112.09
2018-09-25T18:18:16.132Z,100119.89
2018-09-25T18:20:51.378Z,100101.94
2018-09-25T18:23:26.803Z,100116.21
2018-09-25T18:26:02.224Z,100115.63
2018-09-25T18:28:37.664Z,100135.20
2018-09-25T18:31:13.282Z,100141.69
2018-09-25T18:33:48.806Z,100139.03
2018-09-25T18:36:24.100Z,100148.25
2018-09-25T18:38:59.507Z,100140.74
2018-09-25T18:41:35.052Z,100147.20
2018-09-25T19:37:26.490Z,100209.99
2018-09-25T19:40:01.881Z,100215.20
2018-09-25T19:42:37.224Z,100218.47
